sensor_id;sensor_type;location;lat;lon;timestamp;noise_LAeq;noise_LA_min;noise_LA_max;noise_LA01;noise_LA95
70454;Laerm;57915;47.174;14.680;2023-02-01T00:00:21;59.04;40.96;73.34;;
70454;Laerm;57915;47.174;14.680;2023-02-01T00:01:23;46.05;40.89;68.68;;
70454;Laerm;57915;47.174;14.680;2023-02-01T00:02:25;51.30;41.07;73.63;;
70454;Laerm;57915;47.174;14.680;2023-02-01T00:03:26;47.82;40.66;73.72;;
70454;Laerm;57915;47.174;14.680;2023-02-01T00:04:27;47.78;40.86;64.32;;
70454;Laerm;57915;47.174;14.680;2023-02-01T00:05:28;45.84;39.77;62.69;;
70454;Laerm;57915;47.174;14.680;2023-02-01T00:06:32;43.65;39.94;56.25;;
70454;Laerm;57915;47.174;14.680;2023-02-01T00:07:33;47.61;40.58;66.26;;
70454;Laerm;57915;47.174;14.680;2023-02-01T00:08:34;52.36;40.64;75.24;;
70454;Laerm;57915;47.174;14.680;2023-02-01T00:09:35;51.76;40.69;72.62;;
70454;Laerm;57915;47.174;14.680;2023-02-01T00:10:36;50.24;41.38;69.26;;
70454;Laerm;57915;47.174;14.680;2023-02-01T00:11:37;49.41;40.29;69.12;;
70454;Laerm;57915;47.174;14.680;2023-02-01T00:12:38;45.68;40.38;66.93;;
70454;Laerm;57915;47.174;14.680;2023-02-01T00:13:40;45.46;40.22;63.05;;
70454;Laerm;57915;47.174;14.680;2023-02-01T00:14:42;45.43;40.98;62.72;;
70454;Laerm;57915;47.174;14.680;2023-02-01T00:15:42;45.16;40.69;65.72;;
70454;Laerm;57915;47.174;14.680;2023-02-01T00:16:45;46.33;40.91;63.78;;
70454;Laerm;57915;47.174;14.680;2023-02-01T00:17:46;51.56;42.04;73.98;;
70454;Laerm;57915;47.174;14.680;2023-02-01T00:18:48;53.22;43.81;68.68;;
70454;Laerm;57915;47.174;14.680;2023-02-01T00:19:50;50.27;42.56;70.83;;
70454;Laerm;57915;47.174;14.680;2023-02-01T00:20:51;48.89;41.93;71.04;;
70454;Laerm;57915;47.174;14.680;2023-02-01T00:21:52;52.25;42.70;71.25;;
70454;Laerm;57915;47.174;14.680;2023-02-01T00:22:54;62.35;43.90;74.57;;
70454;Laerm;57915;47.174;14.680;2023-02-01T00:23:54;47.74;41.51;65.94;;
70454;Laerm;57915;47.174;14.680;2023-02-01T00:25:02;45.03;41.54;59.66;;
70454;Laerm;57915;47.174;14.680;2023-02-01T00:26:07;51.46;41.15;76.89;;
70454;Laerm;57915;47.174;14.680;2023-02-01T00:27:09;46.82;41.26;67.25;;
70454;Laerm;57915;47.174;14.680;2023-02-01T00:28:09;49.01;42.48;68.99;;
70454;Laerm;57915;47.174;14.680;2023-02-01T00:29:13;48.68;42.92;61.89;;
70454;Laerm;57915;47.174;14.680;2023-02-01T00:30:14;51.50;43.01;64.34;;
70454;Laerm;57915;47.174;14.680;2023-02-01T00:31:15;55.93;41.86;80.61;;
70454;Laerm;57915;47.174;14.680;2023-02-01T00:32:17;50.32;42.72;66.19;;
70454;Laerm;57915;47.174;14.680;2023-02-01T00:33:19;50.59;42.72;67.09;;
70454;Laerm;57915;47.174;14.680;2023-02-01T00:34:19;53.93;45.32;70.80;;
70454;Laerm;57915;47.174;14.680;2023-02-01T00:35:21;54.35;42.84;78.37;;
70454;Laerm;57915;47.174;14.680;2023-02-01T00:36:22;59.19;43.80;72.11;;
70454;Laerm;57915;47.174;14.680;2023-02-01T00:37:23;51.92;42.79;70.40;;
70454;Laerm;57915;47.174;14.680;2023-02-01T00:38:25;52.43;42.05;75.22;;
70454;Laerm;57915;47.174;14.680;2023-02-01T00:39:26;55.88;41.98;80.05;;
70454;Laerm;57915;47.174;14.680;2023-02-01T00:40:27;52.62;42.19;70.35;;
70454;Laerm;57915;47.174;14.680;2023-02-01T00:41:28;46.34;42.07;62.74;;
70454;Laerm;57915;47.174;14.680;2023-02-01T00:42:29;49.60;40.37;66.67;;
70454;Laerm;57915;47.174;14.680;2023-02-01T00:43:30;53.04;41.45;71.53;;
70454;Laerm;57915;47.174;14.680;2023-02-01T00:44:31;47.11;41.15;66.03;;
70454;Laerm;57915;47.174;14.680;2023-02-01T00:45:35;50.67;41.10;72.73;;
70454;Laerm;57915;47.174;14.680;2023-02-01T00:46:36;50.38;42.71;72.35;;
70454;Laerm;57915;47.174;14.680;2023-02-01T00:47:41;47.61;40.12;64.18;;
70454;Laerm;57915;47.174;14.680;2023-02-01T00:48:43;43.70;39.97;58.33;;
70454;Laerm;57915;47.174;14.680;2023-02-01T00:49:44;47.40;40.03;64.11;;
70454;Laerm;57915;47.174;14.680;2023-02-01T00:50:48;44.73;40.64;61.96;;
70454;Laerm;57915;47.174;14.680;2023-02-01T00:51:49;46.63;40.47;62.04;;
70454;Laerm;57915;47.174;14.680;2023-02-01T00:52:50;43.50;39.51;54.70;;
70454;Laerm;57915;47.174;14.680;2023-02-01T00:53:51;44.32;39.60;63.38;;
70454;Laerm;57915;47.174;14.680;2023-02-01T00:54:55;45.96;39.96;66.64;;
70454;Laerm;57915;47.174;14.680;2023-02-01T00:55:56;44.84;39.50;62.50;;
70454;Laerm;57915;47.174;14.680;2023-02-01T00:56:57;44.04;39.81;57.85;;
70454;Laerm;57915;47.174;14.680;2023-02-01T00:57:58;46.57;38.80;67.64;;
70454;Laerm;57915;47.174;14.680;2023-02-01T00:58:59;47.70;40.26;70.44;;
70454;Laerm;57915;47.174;14.680;2023-02-01T01:00:00;45.17;40.45;59.71;;
70454;Laerm;57915;47.174;14.680;2023-02-01T01:01:03;43.85;40.50;59.61;;
70454;Laerm;57915;47.174;14.680;2023-02-01T01:02:03;52.41;42.26;74.02;;
70454;Laerm;57915;47.174;14.680;2023-02-01T01:03:06;47.73;40.41;70.13;;
70454;Laerm;57915;47.174;14.680;2023-02-01T01:04:17;60.77;43.61;74.68;;
70454;Laerm;57915;47.174;14.680;2023-02-01T01:05:19;50.02;42.12;72.26;;
70454;Laerm;57915;47.174;14.680;2023-02-01T01:06:20;47.22;40.92;63.70;;
70454;Laerm;57915;47.174;14.680;2023-02-01T01:07:22;52.74;41.58;77.19;;
70454;Laerm;57915;47.174;14.680;2023-02-01T01:08:22;54.23;41.82;73.21;;
70454;Laerm;57915;47.174;14.680;2023-02-01T01:09:24;52.24;42.93;79.35;;
70454;Laerm;57915;47.174;14.680;2023-02-01T01:10:25;52.57;42.99;73.23;;
70454;Laerm;57915;47.174;14.680;2023-02-01T01:11:27;51.18;42.20;71.29;;
70454;Laerm;57915;47.174;14.680;2023-02-01T01:12:28;59.29;42.75;81.73;;
70454;Laerm;57915;47.174;14.680;2023-02-01T01:13:29;54.51;42.43;73.77;;
70454;Laerm;57915;47.174;14.680;2023-02-01T01:14:31;46.14;41.51;64.50;;
70454;Laerm;57915;47.174;14.680;2023-02-01T01:15:35;46.29;41.39;64.69;;
70454;Laerm;57915;47.174;14.680;2023-02-01T01:16:35;47.80;41.29;66.27;;
70454;Laerm;57915;47.174;14.680;2023-02-01T01:17:37;52.15;40.81;75.42;;
70454;Laerm;57915;47.174;14.680;2023-02-01T01:18:41;53.11;42.21;73.84;;
70454;Laerm;57915;47.174;14.680;2023-02-01T01:19:43;47.53;41.01;66.92;;
70454;Laerm;57915;47.174;14.680;2023-02-01T01:20:43;50.46;42.19;71.02;;
70454;Laerm;57915;47.174;14.680;2023-02-01T01:21:45;52.14;42.33;75.56;;
70454;Laerm;57915;47.174;14.680;2023-02-01T01:22:47;52.51;43.11;75.51;;
70454;Laerm;57915;47.174;14.680;2023-02-01T01:23:50;54.49;44.23;75.86;;
70454;Laerm;57915;47.174;14.680;2023-02-01T01:24:52;49.79;43.79;67.71;;
70454;Laerm;57915;47.174;14.680;2023-02-01T01:25:52;53.34;43.68;78.13;;
70454;Laerm;57915;47.174;14.680;2023-02-01T01:26:57;55.19;43.74;78.12;;
70454;Laerm;57915;47.174;14.680;2023-02-01T01:27:58;57.17;44.17;79.00;;
70454;Laerm;57915;47.174;14.680;2023-02-01T01:28:59;53.19;43.92;70.46;;
70454;Laerm;57915;47.174;14.680;2023-02-01T01:30:00;55.88;45.11;73.66;;
70454;Laerm;57915;47.174;14.680;2023-02-01T01:31:01;59.10;44.98;84.19;;
70454;Laerm;57915;47.174;14.680;2023-02-01T01:32:10;56.32;45.11;74.22;;
70454;Laerm;57915;47.174;14.680;2023-02-01T01:33:11;58.65;43.83;79.01;;
70454;Laerm;57915;47.174;14.680;2023-02-01T01:34:13;56.33;44.77;75.23;;
70454;Laerm;57915;47.174;14.680;2023-02-01T01:35:14;54.37;45.02;74.47;;
70454;Laerm;57915;47.174;14.680;2023-02-01T01:36:16;48.90;43.55;66.08;;
70454;Laerm;57915;47.174;14.680;2023-02-01T01:37:16;53.49;45.13;71.98;;
70454;Laerm;57915;47.174;14.680;2023-02-01T01:38:18;50.95;43.81;66.53;;
70454;Laerm;57915;47.174;14.680;2023-02-01T01:39:18;55.88;43.85;79.91;;
70454;Laerm;57915;47.174;14.680;2023-02-01T01:40:23;53.89;43.32;74.31;;
70454;Laerm;57915;47.174;14.680;2023-02-01T01:41:25;55.99;44.01;78.07;;
70454;Laerm;57915;47.174;14.680;2023-02-01T01:42:26;58.20;43.71;82.76;;
70454;Laerm;57915;47.174;14.680;2023-02-01T01:44:56;49.36;42.44;68.48;;
70454;Laerm;57915;47.174;14.680;2023-02-01T01:45:57;58.36;42.72;78.39;;
70454;Laerm;57915;47.174;14.680;2023-02-01T01:46:59;53.89;43.83;72.18;;
70454;Laerm;57915;47.174;14.680;2023-02-01T01:48:00;58.45;44.53;75.99;;
70454;Laerm;57915;47.174;14.680;2023-02-01T01:49:05;58.33;44.88;79.66;;
70454;Laerm;57915;47.174;14.680;2023-02-01T01:50:08;56.51;43.98;79.81;;
70454;Laerm;57915;47.174;14.680;2023-02-01T01:51:11;46.62;41.70;61.04;;
70454;Laerm;57915;47.174;14.680;2023-02-01T01:52:13;46.08;42.68;60.73;;
70454;Laerm;57915;47.174;14.680;2023-02-01T01:53:16;56.77;42.81;77.94;;
70454;Laerm;57915;47.174;14.680;2023-02-01T01:54:18;52.38;43.42;67.40;;
70454;Laerm;57915;47.174;14.680;2023-02-01T01:55:22;55.33;41.38;77.19;;
70454;Laerm;57915;47.174;14.680;2023-02-01T01:56:24;54.23;42.53;74.31;;
70454;Laerm;57915;47.174;14.680;2023-02-01T01:57:31;52.32;42.50;73.80;;
70454;Laerm;57915;47.174;14.680;2023-02-01T01:58:33;54.06;43.11;78.80;;
70454;Laerm;57915;47.174;14.680;2023-02-01T01:59:35;50.52;41.51;73.21;;
70454;Laerm;57915;47.174;14.680;2023-02-01T02:00:41;53.24;42.19;76.73;;
70454;Laerm;57915;47.174;14.680;2023-02-01T02:01:43;43.95;40.93;59.18;;
70454;Laerm;57915;47.174;14.680;2023-02-01T02:02:47;53.07;40.65;74.87;;
70454;Laerm;57915;47.174;14.680;2023-02-01T02:03:49;47.45;40.44;66.54;;
70454;Laerm;57915;47.174;14.680;2023-02-01T02:04:50;49.86;41.57;66.15;;
70454;Laerm;57915;47.174;14.680;2023-02-01T02:05:54;49.57;41.87;64.71;;
70454;Laerm;57915;47.174;14.680;2023-02-01T02:06:59;54.62;42.40;75.99;;
70454;Laerm;57915;47.174;14.680;2023-02-01T02:08:02;52.75;42.37;74.52;;
70454;Laerm;57915;47.174;14.680;2023-02-01T02:09:03;53.11;43.49;73.80;;
70454;Laerm;57915;47.174;14.680;2023-02-01T02:10:06;55.65;43.77;78.24;;
70454;Laerm;57915;47.174;14.680;2023-02-01T02:11:07;54.26;42.91;77.82;;
70454;Laerm;57915;47.174;14.680;2023-02-01T02:12:09;54.19;42.93;73.59;;
70454;Laerm;57915;47.174;14.680;2023-02-01T02:13:10;53.72;43.54;74.80;;
70454;Laerm;57915;47.174;14.680;2023-02-01T02:14:11;56.60;45.41;75.94;;
70454;Laerm;57915;47.174;14.680;2023-02-01T02:15:15;58.84;43.79;77.67;;
70454;Laerm;57915;47.174;14.680;2023-02-01T02:16:21;57.07;44.84;76.55;;
70454;Laerm;57915;47.174;14.680;2023-02-01T02:17:29;52.17;45.00;74.57;;
70454;Laerm;57915;47.174;14.680;2023-02-01T02:18:32;57.78;44.09;77.60;;
70454;Laerm;57915;47.174;14.680;2023-02-01T02:19:48;51.61;43.09;73.91;;
70454;Laerm;57915;47.174;14.680;2023-02-01T02:22:23;51.03;43.69;73.57;;
70454;Laerm;57915;47.174;14.680;2023-02-01T02:25:25;52.89;43.29;72.26;;
70454;Laerm;57915;47.174;14.680;2023-02-01T02:26:35;54.54;43.20;80.52;;
70454;Laerm;57915;47.174;14.680;2023-02-01T02:27:44;54.48;44.64;72.85;;
70454;Laerm;57915;47.174;14.680;2023-02-01T02:28:55;59.92;45.60;79.18;;
70454;Laerm;57915;47.174;14.680;2023-02-01T02:30:16;57.25;44.57;77.39;;
70454;Laerm;57915;47.174;14.680;2023-02-01T02:31:24;55.78;45.00;76.40;;
70454;Laerm;57915;47.174;14.680;2023-02-01T02:34:01;52.53;44.41;70.68;;
70454;Laerm;57915;47.174;14.680;2023-02-01T02:35:08;53.77;43.88;73.08;;
70454;Laerm;57915;47.174;14.680;2023-02-01T02:36:15;58.21;44.31;81.73;;
70454;Laerm;57915;47.174;14.680;2023-02-01T02:37:21;60.04;45.79;84.49;;
70454;Laerm;57915;47.174;14.680;2023-02-01T02:38:29;56.73;45.72;75.25;;
70454;Laerm;57915;47.174;14.680;2023-02-01T02:39:39;62.91;47.68;87.06;;
70454;Laerm;57915;47.174;14.680;2023-02-01T02:40:45;54.74;45.74;73.78;;
70454;Laerm;57915;47.174;14.680;2023-02-01T02:41:49;60.45;45.86;81.27;;
70454;Laerm;57915;47.174;14.680;2023-02-01T02:43:12;57.92;46.62;80.09;;
70454;Laerm;57915;47.174;14.680;2023-02-01T02:44:37;59.43;45.35;77.68;;
70454;Laerm;57915;47.174;14.680;2023-02-01T02:46:03;64.02;46.15;87.26;;
70454;Laerm;57915;47.174;14.680;2023-02-01T02:47:25;58.45;46.75;76.67;;
70454;Laerm;57915;47.174;14.680;2023-02-01T02:48:29;59.71;45.80;81.73;;
70454;Laerm;57915;47.174;14.680;2023-02-01T02:49:34;55.61;46.04;77.28;;
70454;Laerm;57915;47.174;14.680;2023-02-01T02:50:41;60.13;44.87;80.78;;
70454;Laerm;57915;47.174;14.680;2023-02-01T02:52:02;56.16;45.86;76.47;;
70454;Laerm;57915;47.174;14.680;2023-02-01T02:53:30;55.16;45.36;76.29;;
70454;Laerm;57915;47.174;14.680;2023-02-01T02:54:51;58.54;45.57;81.91;;
70454;Laerm;57915;47.174;14.680;2023-02-01T02:55:54;58.90;47.32;78.26;;
70454;Laerm;57915;47.174;14.680;2023-02-01T02:57:16;59.68;46.01;81.25;;
70454;Laerm;57915;47.174;14.680;2023-02-01T02:58:36;56.72;46.28;79.23;;
70454;Laerm;57915;47.174;14.680;2023-02-01T02:59:55;57.34;46.10;80.44;;
70454;Laerm;57915;47.174;14.680;2023-02-01T03:01:16;57.68;46.13;76.24;;
70454;Laerm;57915;47.174;14.680;2023-02-01T03:02:35;58.49;46.09;77.14;;
70454;Laerm;57915;47.174;14.680;2023-02-01T03:03:54;62.56;46.77;76.37;;
70454;Laerm;57915;47.174;14.680;2023-02-01T03:05:13;57.67;45.48;81.67;;
70454;Laerm;57915;47.174;14.680;2023-02-01T03:06:14;55.07;45.85;66.89;;
70454;Laerm;57915;47.174;14.680;2023-02-01T03:08:33;64.58;45.12;78.31;;
70454;Laerm;57915;47.174;14.680;2023-02-01T03:09:35;60.97;45.68;77.26;;
70454;Laerm;57915;47.174;14.680;2023-02-01T03:10:50;60.00;45.89;76.49;;
70454;Laerm;57915;47.174;14.680;2023-02-01T03:11:55;55.17;45.10;76.82;;
70454;Laerm;57915;47.174;14.680;2023-02-01T03:13:16;57.02;44.80;75.96;;
70454;Laerm;57915;47.174;14.680;2023-02-01T03:14:20;57.08;44.54;76.70;;
70454;Laerm;57915;47.174;14.680;2023-02-01T03:15:23;57.71;45.20;76.09;;
70454;Laerm;57915;47.174;14.680;2023-02-01T03:16:31;59.58;45.45;84.41;;
70454;Laerm;57915;47.174;14.680;2023-02-01T03:17:34;61.59;46.63;83.57;;
70454;Laerm;57915;47.174;14.680;2023-02-01T03:18:42;53.61;45.42;72.49;;
70454;Laerm;57915;47.174;14.680;2023-02-01T03:19:45;57.25;46.30;82.58;;
70454;Laerm;57915;47.174;14.680;2023-02-01T03:20:51;57.42;46.54;77.02;;
70454;Laerm;57915;47.174;14.680;2023-02-01T03:21:55;62.92;47.39;84.57;;
70454;Laerm;57915;47.174;14.680;2023-02-01T03:22:57;58.07;46.66;85.10;;
70454;Laerm;57915;47.174;14.680;2023-02-01T03:24:01;55.88;46.03;77.96;;
70454;Laerm;57915;47.174;14.680;2023-02-01T03:25:04;52.67;44.79;69.94;;
70454;Laerm;57915;47.174;14.680;2023-02-01T03:26:07;57.69;45.26;78.84;;
70454;Laerm;57915;47.174;14.680;2023-02-01T03:27:10;51.28;44.08;67.32;;
70454;Laerm;57915;47.174;14.680;2023-02-01T03:28:14;53.75;45.04;76.21;;
70454;Laerm;57915;47.174;14.680;2023-02-01T03:29:16;56.47;45.42;78.01;;
70454;Laerm;57915;47.174;14.680;2023-02-01T03:30:20;59.19;45.34;76.85;;
70454;Laerm;57915;47.174;14.680;2023-02-01T03:31:21;57.68;46.40;75.50;;
70454;Laerm;57915;47.174;14.680;2023-02-01T03:32:26;56.70;45.45;69.20;;
70454;Laerm;57915;47.174;14.680;2023-02-01T03:33:29;55.06;47.74;74.23;;
70454;Laerm;57915;47.174;14.680;2023-02-01T03:34:31;56.60;46.08;73.22;;
70454;Laerm;57915;47.174;14.680;2023-02-01T03:35:33;51.28;43.17;76.06;;
70454;Laerm;57915;47.174;14.680;2023-02-01T03:36:39;54.32;43.36;68.07;;
70454;Laerm;57915;47.174;14.680;2023-02-01T03:37:41;57.35;43.81;78.87;;
70454;Laerm;57915;47.174;14.680;2023-02-01T03:38:44;56.43;43.19;68.89;;
70454;Laerm;57915;47.174;14.680;2023-02-01T03:39:48;58.78;44.59;72.36;;
70454;Laerm;57915;47.174;14.680;2023-02-01T03:40:55;51.60;43.33;69.37;;
70454;Laerm;57915;47.174;14.680;2023-02-01T03:41:58;49.27;42.89;71.86;;
70454;Laerm;57915;47.174;14.680;2023-02-01T03:43:01;55.34;44.51;76.76;;
70454;Laerm;57915;47.174;14.680;2023-02-01T03:44:07;58.75;43.93;74.85;;
70454;Laerm;57915;47.174;14.680;2023-02-01T03:45:10;57.77;45.02;72.87;;
70454;Laerm;57915;47.174;14.680;2023-02-01T03:46:12;61.29;43.59;86.10;;
70454;Laerm;57915;47.174;14.680;2023-02-01T03:47:19;59.33;41.93;76.27;;
70454;Laerm;57915;47.174;14.680;2023-02-01T03:48:21;51.96;42.49;71.14;;
70454;Laerm;57915;47.174;14.680;2023-02-01T03:49:25;56.22;42.93;76.70;;
70454;Laerm;57915;47.174;14.680;2023-02-01T03:50:26;55.85;44.39;67.24;;
70454;Laerm;57915;47.174;14.680;2023-02-01T03:51:32;57.91;44.46;73.40;;
70454;Laerm;57915;47.174;14.680;2023-02-01T03:52:38;57.12;43.87;75.25;;
70454;Laerm;57915;47.174;14.680;2023-02-01T03:53:41;55.35;42.69;67.54;;
70454;Laerm;57915;47.174;14.680;2023-02-01T03:54:48;48.41;42.72;65.22;;
70454;Laerm;57915;47.174;14.680;2023-02-01T03:55:50;54.90;43.54;75.07;;
70454;Laerm;57915;47.174;14.680;2023-02-01T03:56:56;60.14;43.70;81.98;;
70454;Laerm;57915;47.174;14.680;2023-02-01T03:58:01;60.63;44.16;74.55;;
70454;Laerm;57915;47.174;14.680;2023-02-01T03:59:04;48.87;43.81;66.66;;
70454;Laerm;57915;47.174;14.680;2023-02-01T04:00:05;59.48;44.88;73.91;;
70454;Laerm;57915;47.174;14.680;2023-02-01T04:01:07;57.98;42.04;77.65;;
70454;Laerm;57915;47.174;14.680;2023-02-01T04:02:09;54.88;41.95;75.40;;
70454;Laerm;57915;47.174;14.680;2023-02-01T04:03:09;52.69;42.08;65.41;;
70454;Laerm;57915;47.174;14.680;2023-02-01T04:04:11;58.00;42.21;77.56;;
70454;Laerm;57915;47.174;14.680;2023-02-01T04:05:19;54.50;44.98;72.05;;
70454;Laerm;57915;47.174;14.680;2023-02-01T04:06:24;58.72;43.66;71.33;;
70454;Laerm;57915;47.174;14.680;2023-02-01T04:07:25;51.15;41.41;68.38;;
70454;Laerm;57915;47.174;14.680;2023-02-01T04:08:28;46.48;41.92;64.68;;
70454;Laerm;57915;47.174;14.680;2023-02-01T04:09:28;58.92;42.48;69.64;;
70454;Laerm;57915;47.174;14.680;2023-02-01T04:10:30;50.06;42.92;63.92;;
70454;Laerm;57915;47.174;14.680;2023-02-01T04:11:31;58.63;43.91;71.61;;
70454;Laerm;57915;47.174;14.680;2023-02-01T04:12:32;59.68;48.36;71.27;;
70454;Laerm;57915;47.174;14.680;2023-02-01T04:13:33;61.56;46.83;76.40;;
70454;Laerm;57915;47.174;14.680;2023-02-01T04:14:34;64.38;46.07;74.04;;
70454;Laerm;57915;47.174;14.680;2023-02-01T04:15:37;59.48;42.89;77.50;;
70454;Laerm;57915;47.174;14.680;2023-02-01T04:16:39;55.58;43.19;69.50;;
70454;Laerm;57915;47.174;14.680;2023-02-01T04:17:42;58.68;44.29;75.53;;
70454;Laerm;57915;47.174;14.680;2023-02-01T04:18:43;57.28;42.95;70.98;;
70454;Laerm;57915;47.174;14.680;2023-02-01T04:19:44;52.87;42.66;70.22;;
70454;Laerm;57915;47.174;14.680;2023-02-01T04:20:45;59.43;45.56;72.16;;
70454;Laerm;57915;47.174;14.680;2023-02-01T04:21:48;52.71;42.23;64.20;;
70454;Laerm;57915;47.174;14.680;2023-02-01T04:22:49;64.34;42.62;77.21;;
70454;Laerm;57915;47.174;14.680;2023-02-01T04:23:51;60.45;44.07;73.06;;
70454;Laerm;57915;47.174;14.680;2023-02-01T04:24:53;51.16;42.33;68.58;;
70454;Laerm;57915;47.174;14.680;2023-02-01T04:25:54;58.82;41.90;70.73;;
70454;Laerm;57915;47.174;14.680;2023-02-01T04:26:59;59.23;43.09;72.45;;
70454;Laerm;57915;47.174;14.680;2023-02-01T04:28:00;57.73;42.26;71.39;;
70454;Laerm;57915;47.174;14.680;2023-02-01T04:29:05;54.94;43.09;66.72;;
70454;Laerm;57915;47.174;14.680;2023-02-01T04:30:06;59.78;43.90;71.23;;
70454;Laerm;57915;47.174;14.680;2023-02-01T04:31:09;53.59;41.63;70.68;;
70454;Laerm;57915;47.174;14.680;2023-02-01T04:32:10;61.27;44.71;68.75;;
70454;Laerm;57915;47.174;14.680;2023-02-01T04:33:12;59.66;44.40;72.14;;
70454;Laerm;57915;47.174;14.680;2023-02-01T04:34:14;56.21;43.37;68.96;;
70454;Laerm;57915;47.174;14.680;2023-02-01T04:35:15;64.51;43.55;77.61;;
70454;Laerm;57915;47.174;14.680;2023-02-01T04:36:18;55.68;43.87;70.57;;
70454;Laerm;57915;47.174;14.680;2023-02-01T04:37:21;60.00;42.32;70.41;;
70454;Laerm;57915;47.174;14.680;2023-02-01T04:38:22;61.05;43.15;77.02;;
70454;Laerm;57915;47.174;14.680;2023-02-01T04:39:25;53.59;42.18;64.80;;
70454;Laerm;57915;47.174;14.680;2023-02-01T04:40:25;60.60;42.38;72.53;;
70454;Laerm;57915;47.174;14.680;2023-02-01T04:41:27;45.60;41.55;60.30;;
70454;Laerm;57915;47.174;14.680;2023-02-01T04:42:31;62.36;45.40;74.17;;
70454;Laerm;57915;47.174;14.680;2023-02-01T04:43:32;58.64;41.61;70.65;;
70454;Laerm;57915;47.174;14.680;2023-02-01T04:44:33;62.26;44.47;70.49;;
70454;Laerm;57915;47.174;14.680;2023-02-01T04:45:34;57.88;43.43;68.31;;
70454;Laerm;57915;47.174;14.680;2023-02-01T04:46:35;59.05;43.54;70.01;;
70454;Laerm;57915;47.174;14.680;2023-02-01T04:47:36;60.95;43.65;70.26;;
70454;Laerm;57915;47.174;14.680;2023-02-01T04:48:37;59.25;43.99;71.09;;
70454;Laerm;57915;47.174;14.680;2023-02-01T04:49:38;58.49;42.94;69.40;;
70454;Laerm;57915;47.174;14.680;2023-02-01T04:50:39;53.47;42.25;67.59;;
70454;Laerm;57915;47.174;14.680;2023-02-01T04:51:41;45.82;41.87;60.52;;
70454;Laerm;57915;47.174;14.680;2023-02-01T04:52:42;60.96;44.85;69.99;;
70454;Laerm;57915;47.174;14.680;2023-02-01T04:53:46;52.17;42.62;64.83;;
70454;Laerm;57915;47.174;14.680;2023-02-01T04:54:48;56.35;42.33;68.32;;
70454;Laerm;57915;47.174;14.680;2023-02-01T04:55:49;56.68;44.63;68.75;;
70454;Laerm;57915;47.174;14.680;2023-02-01T04:56:50;58.52;42.05;70.09;;
70454;Laerm;57915;47.174;14.680;2023-02-01T04:57:51;57.34;43.40;68.69;;
70454;Laerm;57915;47.174;14.680;2023-02-01T04:58:55;52.92;41.76;65.34;;
70454;Laerm;57915;47.174;14.680;2023-02-01T04:59:57;46.20;40.57;55.09;;
70454;Laerm;57915;47.174;14.680;2023-02-01T05:00:57;54.19;41.05;67.35;;
70454;Laerm;57915;47.174;14.680;2023-02-01T05:01:59;56.35;41.00;71.35;;
70454;Laerm;57915;47.174;14.680;2023-02-01T05:02:59;54.27;40.73;69.63;;
70454;Laerm;57915;47.174;14.680;2023-02-01T05:04:01;49.02;41.03;67.86;;
70454;Laerm;57915;47.174;14.680;2023-02-01T05:05:02;59.98;41.83;70.68;;
70454;Laerm;57915;47.174;14.680;2023-02-01T05:06:06;58.02;42.74;72.54;;
70454;Laerm;57915;47.174;14.680;2023-02-01T05:07:08;59.27;42.70;71.39;;
70454;Laerm;57915;47.174;14.680;2023-02-01T05:08:13;55.40;40.98;72.37;;
70454;Laerm;57915;47.174;14.680;2023-02-01T05:09:15;58.18;41.44;70.30;;
70454;Laerm;57915;47.174;14.680;2023-02-01T05:10:17;64.41;46.75;73.18;;
70454;Laerm;57915;47.174;14.680;2023-02-01T05:11:20;64.70;44.29;77.41;;
70454;Laerm;57915;47.174;14.680;2023-02-01T05:12:42;57.35;42.33;69.46;;
70454;Laerm;57915;47.174;14.680;2023-02-01T05:14:01;58.15;41.95;70.79;;
70454;Laerm;57915;47.174;14.680;2023-02-01T05:15:02;59.94;43.92;70.71;;
70454;Laerm;57915;47.174;14.680;2023-02-01T05:16:03;57.33;42.68;67.54;;
70454;Laerm;57915;47.174;14.680;2023-02-01T05:17:04;60.68;43.67;70.48;;
70454;Laerm;57915;47.174;14.680;2023-02-01T05:18:06;61.89;43.31;72.57;;
70454;Laerm;57915;47.174;14.680;2023-02-01T05:19:06;64.11;46.21;74.90;;
70454;Laerm;57915;47.174;14.680;2023-02-01T05:20:08;62.09;43.46;70.83;;
70454;Laerm;57915;47.174;14.680;2023-02-01T05:21:09;58.86;42.94;73.76;;
70454;Laerm;57915;47.174;14.680;2023-02-01T05:22:10;46.89;42.60;61.94;;
70454;Laerm;57915;47.174;14.680;2023-02-01T05:23:11;56.99;43.03;68.68;;
70454;Laerm;57915;47.174;14.680;2023-02-01T05:24:12;56.42;44.77;66.81;;
70454;Laerm;57915;47.174;14.680;2023-02-01T05:25:13;58.70;45.72;67.84;;
70454;Laerm;57915;47.174;14.680;2023-02-01T05:26:16;46.62;42.65;58.56;;
70454;Laerm;57915;47.174;14.680;2023-02-01T05:27:20;58.34;44.05;68.67;;
70454;Laerm;57915;47.174;14.680;2023-02-01T05:28:22;63.37;45.77;76.16;;
70454;Laerm;57915;47.174;14.680;2023-02-01T05:29:22;59.38;45.35;72.28;;
70454;Laerm;57915;47.174;14.680;2023-02-01T05:30:24;63.50;43.64;75.43;;
70454;Laerm;57915;47.174;14.680;2023-02-01T05:31:25;56.24;43.25;66.52;;
70454;Laerm;57915;47.174;14.680;2023-02-01T05:32:26;57.16;44.67;65.92;;
70454;Laerm;57915;47.174;14.680;2023-02-01T05:33:27;60.63;44.87;71.81;;
70454;Laerm;57915;47.174;14.680;2023-02-01T05:34:28;56.03;42.09;65.63;;
70454;Laerm;57915;47.174;14.680;2023-02-01T05:35:29;53.19;44.40;63.56;;
70454;Laerm;57915;47.174;14.680;2023-02-01T05:36:30;58.38;45.06;67.86;;
70454;Laerm;57915;47.174;14.680;2023-02-01T05:37:33;57.29;41.95;68.17;;
70454;Laerm;57915;47.174;14.680;2023-02-01T05:38:35;55.16;42.23;68.40;;
70454;Laerm;57915;47.174;14.680;2023-02-01T05:39:37;54.98;42.07;65.73;;
70454;Laerm;57915;47.174;14.680;2023-02-01T05:40:38;46.00;42.51;55.00;;
70454;Laerm;57915;47.174;14.680;2023-02-01T05:41:40;58.19;43.62;67.75;;
70454;Laerm;57915;47.174;14.680;2023-02-01T05:42:42;58.57;44.44;69.75;;
70454;Laerm;57915;47.174;14.680;2023-02-01T05:43:42;58.99;44.47;66.84;;
70454;Laerm;57915;47.174;14.680;2023-02-01T05:44:44;58.00;44.57;69.35;;
70454;Laerm;57915;47.174;14.680;2023-02-01T05:45:44;58.34;46.39;66.42;;
70454;Laerm;57915;47.174;14.680;2023-02-01T05:46:46;51.63;44.57;60.83;;
70454;Laerm;57915;47.174;14.680;2023-02-01T05:47:46;62.77;44.95;74.04;;
70454;Laerm;57915;47.174;14.680;2023-02-01T05:48:48;59.24;44.74;67.80;;
70454;Laerm;57915;47.174;14.680;2023-02-01T05:49:48;61.56;47.45;70.23;;
70454;Laerm;57915;47.174;14.680;2023-02-01T05:50:50;49.59;45.23;56.11;;
70454;Laerm;57915;47.174;14.680;2023-02-01T05:51:50;62.00;45.61;69.58;;
70454;Laerm;57915;47.174;14.680;2023-02-01T05:52:52;62.44;49.56;73.88;;
70454;Laerm;57915;47.174;14.680;2023-02-01T05:53:53;57.61;45.15;68.71;;
70454;Laerm;57915;47.174;14.680;2023-02-01T05:54:54;60.27;46.21;69.82;;
70454;Laerm;57915;47.174;14.680;2023-02-01T05:55:55;61.16;47.11;68.86;;
70454;Laerm;57915;47.174;14.680;2023-02-01T05:56:58;48.10;43.65;60.63;;
70454;Laerm;57915;47.174;14.680;2023-02-01T05:57:59;55.48;43.85;67.49;;